sensor_id;sensor_type;location;lat;lon;timestamp;temperature;humidity
40249;DHT22;25969;49.970;11.062;2023-05-14T15:08:18;19.90;58.50
40249;DHT22;25969;49.970;11.062;2023-05-14T15:18:20;20.30;59.20
40249;DHT22;25969;49.970;11.062;2023-05-14T15:28:20;21.10;55.90
40249;DHT22;25969;49.970;11.062;2023-05-14T15:38:21;20.80;58.20
40249;DHT22;25969;49.970;11.062;2023-05-14T15:48:22;22.40;53.60
40249;DHT22;25969;49.970;11.062;2023-05-14T15:58:23;23.30;51.10
40249;DHT22;25969;49.970;11.062;2023-05-14T16:08:23;22.70;52.40
40249;DHT22;25969;49.970;11.062;2023-05-14T16:18:24;21.50;54.40
40249;DHT22;25969;49.970;11.062;2023-05-14T16:28:25;20.30;56.80
40249;DHT22;25969;49.970;11.062;2023-05-14T16:38:26;21.60;52.80
40249;DHT22;25969;49.970;11.062;2023-05-14T16:48:27;21.40;52.30
40249;DHT22;25969;49.970;11.062;2023-05-14T16:58:28;19.60;55.70
40249;DHT22;25969;49.970;11.062;2023-05-14T17:08:28;19.10;57.40
40249;DHT22;25969;49.970;11.062;2023-05-14T17:18:33;18.30;60.30
40249;DHT22;25969;49.970;11.062;2023-05-14T17:28:33;18.40;60.90
40249;DHT22;25969;49.970;11.062;2023-05-14T17:38:34;18.30;62.20
40249;DHT22;25969;49.970;11.062;2023-05-14T17:48:35;17.30;65.20
40249;DHT22;25969;49.970;11.062;2023-05-14T17:58:36;16.50;69.20
40249;DHT22;25969;49.970;11.062;2023-05-14T18:08:36;15.90;70.50
40249;DHT22;25969;49.970;11.062;2023-05-14T18:18:37;15.60;71.00
40249;DHT22;25969;49.970;11.062;2023-05-14T18:28:38;15.10;74.80
40249;DHT22;25969;49.970;11.062;2023-05-14T18:38:39;15.00;77.80
40249;DHT22;25969;49.970;11.062;2023-05-14T18:48:40;14.90;79.10
40249;DHT22;25969;49.970;11.062;2023-05-14T18:58:41;14.70;81.10
40249;DHT22;25969;49.970;11.062;2023-05-14T19:08:42;14.60;82.10
40249;DHT22;25969;49.970;11.062;2023-05-14T19:18:43;14.40;83.30
40249;DHT22;25969;49.970;11.062;2023-05-14T19:28:44;14.20;86.00
40249;DHT22;25969;49.970;11.062;2023-05-14T19:38:45;14.00;88.90
40249;DHT22;25969;49.970;11.062;2023-05-14T19:48:46;13.80;90.60
40249;DHT22;25969;49.970;11.062;2023-05-14T19:58:48;13.80;90.10
40249;DHT22;25969;49.970;11.062;2023-05-14T20:08:48;13.80;90.50
40249;DHT22;25969;49.970;11.062;2023-05-14T20:18:52;13.70;90.70
40249;DHT22;25969;49.970;11.062;2023-05-14T20:28:53;13.50;91.80
40249;DHT22;25969;49.970;11.062;2023-05-14T20:38:55;13.20;92.80
40249;DHT22;25969;49.970;11.062;2023-05-14T20:48:56;13.10;93.70
40249;DHT22;25969;49.970;11.062;2023-05-14T20:58:59;13.30;93.70
40249;DHT22;25969;49.970;11.062;2023-05-14T21:09:00;13.40;93.60
40249;DHT22;25969;49.970;11.062;2023-05-14T21:19:01;13.50;93.20
40249;DHT22;25969;49.970;11.062;2023-05-14T21:29:02;13.30;93.70
40249;DHT22;25969;49.970;11.062;2023-05-14T21:39:03;13.10;93.70
40249;DHT22;25969;49.970;11.062;2023-05-14T21:49:05;13.10;93.60
40249;DHT22;25969;49.970;11.062;2023-05-14T21:59:05;13.00;93.70
